Time;durP1;ratioP1;P1;durP2;ratioP2;P2;SDS_P1;SDS_P2;PMS_P1;PMS_P2;Temp;Humidity;BMP_temperature;BMP_pressure;BME280_temperature;BME280_humidity;BME280_pressure;Samples;Min_cycle;Max_cycle;Signal;HPM_P1;HPM_P2
2021/03/14 00:01:17;;;;;;;9.65;1.95;;;3.80;99.90;;;;;;5043258;28;20049;-87
2021/03/14 00:03:43;;;;;;;4.28;1.45;;;3.60;99.90;;;;;;5025278;28;20821;-88
2021/03/14 00:06:12;;;;;;;9.55;1.88;;;3.70;99.90;;;;;;5044380;28;20124;-87
2021/03/14 00:08:38;;;;;;;3.03;1.52;;;3.50;99.90;;;;;;5027464;28;20136;-87
2021/03/14 00:11:09;;;;;;;4.13;1.38;;;3.50;99.90;;;;;;5013307;28;20061;-86
2021/03/14 00:13:37;;;;;;;6.22;1.73;;;3.50;99.90;;;;;;5046337;28;20061;-90
2021/03/14 00:16:06;;;;;;;8.55;1.42;;;3.70;99.90;;;;;;5029997;28;20048;-89
2021/03/14 00:18:37;;;;;;;9.30;2.30;;;3.60;99.90;;;;;;5045464;28;20041;-89
2021/03/14 00:21:05;;;;;;;7.93;1.92;;;3.60;99.90;;;;;;5030959;28;20144;-89
2021/03/14 00:23:31;;;;;;;3.65;1.40;;;3.60;99.90;;;;;;5026932;28;20043;-90
2021/03/14 00:25:57;;;;;;;4.90;1.42;;;3.70;99.90;;;;;;5055068;28;20044;-90
2021/03/14 00:28:24;;;;;;;6.35;1.50;;;3.60;99.90;;;;;;5045946;28;20392;-90
2021/03/14 00:30:50;;;;;;;6.32;1.20;;;3.60;99.90;;;;;;5028359;28;20045;-90
2021/03/14 00:33:16;;;;;;;6.28;1.35;;;3.60;99.90;;;;;;5027939;28;20087;-91
2021/03/14 00:35:42;;;;;;;5.00;0.93;;;3.60;99.90;;;;;;5044587;28;20330;-90
2021/03/14 00:38:08;;;;;;;6.88;1.45;;;3.60;99.90;;;;;;5030527;28;20537;-90
2021/03/14 00:40:35;;;;;;;7.63;1.25;;;3.60;99.90;;;;;;5025291;28;20044;-91
2021/03/14 00:43:03;;;;;;;13.50;1.48;;;3.60;99.90;;;;;;5048141;28;20088;-92
2021/03/14 00:45:30;;;;;;;12.25;2.10;;;3.60;99.90;;;;;;5042827;28;20489;-92
2021/03/14 00:48:01;;;;;;;9.80;1.98;;;3.60;99.90;;;;;;5029582;28;20084;-91
2021/03/14 00:50:28;;;;;;;9.52;1.10;;;3.70;99.90;;;;;;5041138;28;20473;-92
2021/03/14 00:52:54;;;;;;;7.65;1.42;;;3.70;99.90;;;;;;5049609;28;20076;-92
2021/03/14 00:55:20;;;;;;;11.45;2.00;;;3.80;99.90;;;;;;5024884;28;20041;-90
2021/03/14 00:57:46;;;;;;;21.25;2.70;;;3.80;99.90;;;;;;5024618;28;20043;-90
2021/03/14 01:00:12;;;;;;;23.58;3.00;;;4.00;99.90;;;;;;5024897;28;20044;-90
2021/03/14 01:02:38;;;;;;;27.80;3.15;;;4.00;99.90;;;;;;5043944;28;20073;-91
2021/03/14 01:05:05;;;;;;;34.30;4.38;;;4.30;99.90;;;;;;5046133;28;20047;-90
2021/03/14 01:07:30;;;;;;;35.30;4.78;;;4.20;99.90;;;;;;5035629;28;20065;-90
2021/03/14 01:09:56;;;;;;;45.85;6.63;;;4.30;99.90;;;;;;5056999;28;20072;-92
2021/03/14 01:12:22;;;;;;;34.33;4.82;;;4.50;99.90;;;;;;5031722;28;20053;-92
2021/03/14 01:14:48;;;;;;;37.38;4.30;;;4.50;99.90;;;;;;5040030;28;20038;-90
2021/03/14 01:17:14;;;;;;;18.30;2.88;;;4.60;99.90;;;;;;5035983;28;20044;-90
2021/03/14 01:19:40;;;;;;;20.98;2.90;;;4.60;99.90;;;;;;5030611;28;20127;-90
2021/03/14 01:22:06;;;;;;;44.60;4.45;;;4.70;99.90;;;;;;5031061;28;20055;-90
2021/03/14 01:24:32;;;;;;;31.05;4.30;;;4.70;99.90;;;;;;5062218;28;20065;-87
2021/03/14 01:26:58;;;;;;;28.27;3.80;;;4.70;99.90;;;;;;5027922;28;20041;-89
2021/03/14 01:29:24;;;;;;;31.58;4.30;;;4.70;99.90;;;;;;5044460;28;20072;-90
2021/03/14 01:31:49;;;;;;;41.60;5.40;;;4.80;99.90;;;;;;5026908;28;20200;-89
2021/03/14 01:34:15;;;;;;;34.40;3.60;;;4.80;99.90;;;;;;5044576;28;20092;-89
2021/03/14 01:36:41;;;;;;;40.60;5.13;;;4.80;99.90;;;;;;5029868;28;20044;-89
2021/03/14 01:39:07;;;;;;;30.98;3.95;;;4.80;99.90;;;;;;5022080;28;20065;-89
2021/03/14 01:41:33;;;;;;;38.63;4.13;;;4.80;99.90;;;;;;5027140;28;20614;-88
2021/03/14 01:43:59;;;;;;;41.00;4.60;;;4.90;99.90;;;;;;5027741;28;20064;-89
2021/03/14 01:46:27;;;;;;;27.50;3.08;;;4.90;99.90;;;;;;5028467;28;20509;-89
2021/03/14 01:48:53;;;;;;;41.00;5.22;;;4.90;99.90;;;;;;5027010;28;20044;-89
2021/03/14 01:51:19;;;;;;;31.13;5.57;;;4.90;99.90;;;;;;5027621;28;20045;-89
2021/03/14 01:53:45;;;;;;;37.58;5.15;;;4.90;99.90;;;;;;5043180;28;20056;-87
2021/03/14 01:56:11;;;;;;;48.85;6.05;;;5.00;99.90;;;;;;5029076;28;20489;-87
2021/03/14 01:58:40;;;;;;;43.17;5.55;;;5.00;99.90;;;;;;5027043;28;20045;-88
2021/03/14 02:01:06;;;;;;;39.05;4.90;;;5.00;99.90;;;;;;5028499;28;20060;-88
2021/03/14 02:03:32;;;;;;;30.65;3.40;;;5.00;99.90;;;;;;5027418;28;20500;-88
2021/03/14 02:05:58;;;;;;;30.02;3.55;;;5.00;99.90;;;;;;5043326;28;20037;-89
2021/03/14 02:08:24;;;;;;;46.30;6.25;;;5.10;99.90;;;;;;5043842;28;20164;-89
2021/03/14 02:10:53;;;;;;;35.35;3.65;;;5.00;99.90;;;;;;5043496;28;20045;-89
2021/03/14 02:13:24;;;;;;;30.05;5.00;;;5.10;99.90;;;;;;5027683;28;20049;-88
2021/03/14 02:15:58;;;;;;;46.85;4.65;;;5.10;99.90;;;;;;5043235;28;20168;-89
2021/03/14 02:18:26;;;;;;;34.03;4.63;;;5.10;99.90;;;;;;5046920;28;20045;-89
2021/03/14 02:20:52;;;;;;;39.85;5.03;;;5.10;99.90;;;;;;5046870;28;20455;-90
2021/03/14 02:23:21;;;;;;;26.90;4.00;;;5.10;99.90;;;;;;5031353;28;20473;-89
2021/03/14 02:25:52;;;;;;;46.95;5.65;;;5.00;99.90;;;;;;5046795;28;20049;-88
2021/03/14 02:28:20;;;;;;;23.80;3.03;;;5.00;99.90;;;;;;5019456;28;20041;-89
2021/03/14 02:30:47;;;;;;;44.45;6.70;;;5.10;99.90;;;;;;5046989;28;20037;-89
2021/03/14 02:33:16;;;;;;;41.30;4.93;;;5.00;99.90;;;;;;5047503;28;20045;-89
2021/03/14 02:35:45;;;;;;;34.60;4.07;;;5.00;99.90;;;;;;5030256;28;20052;-90
2021/03/14 02:38:12;;;;;;;25.10;3.47;;;5.10;99.90;;;;;;5047223;28;20124;-89
2021/03/14 02:40:39;;;;;;;33.05;4.00;;;5.00;99.90;;;;;;5030386;28;20048;-87
2021/03/14 02:43:05;;;;;;;28.00;3.75;;;5.00;99.90;;;;;;5030363;28;20120;-89
2021/03/14 02:45:31;;;;;;;42.83;4.40;;;5.00;99.90;;;;;;5030358;28;20060;-89
2021/03/14 02:47:58;;;;;;;31.25;4.05;;;5.00;99.90;;;;;;5029205;28;20060;-89
2021/03/14 02:50:25;;;;;;;34.78;3.85;;;5.00;99.90;;;;;;5031144;28;20072;-90
2021/03/14 02:52:51;;;;;;;31.75;4.43;;;5.00;99.90;;;;;;5030095;28;20053;-89
2021/03/14 02:55:22;;;;;;;27.23;3.58;;;5.10;99.90;;;;;;5047185;28;20037;-88
2021/03/14 02:57:50;;;;;;;26.55;3.92;;;5.00;99.90;;;;;;5031190;28;20052;-89
2021/03/14 03:00:20;;;;;;;30.02;4.05;;;5.00;99.90;;;;;;5030236;28;20037;-91
2021/03/14 03:02:48;;;;;;;21.83;3.85;;;5.00;99.90;;;;;;5029840;28;20960;-90
2021/03/14 03:05:16;;;;;;;37.10;4.47;;;5.10;99.90;;;;;;5030452;28;20428;-89
2021/03/14 03:07:47;;;;;;;31.58;4.93;;;5.00;99.90;;;;;;5029933;28;20045;-88
2021/03/14 03:10:15;;;;;;;33.15;4.25;;;5.00;99.90;;;;;;5030080;28;20398;-89
2021/03/14 03:12:46;;;;;;;25.27;4.07;;;5.00;99.90;;;;;;5029364;28;20132;-88
2021/03/14 03:15:16;;;;;;;57.00;5.53;;;5.00;99.90;;;;;;5030052;28;20045;-89
2021/03/14 03:17:43;;;;;;;26.40;4.28;;;5.00;99.90;;;;;;5029325;28;20040;-88
2021/03/14 03:20:11;;;;;;;36.88;5.40;;;4.90;99.90;;;;;;5010165;28;20410;-89
2021/03/14 03:22:37;;;;;;;39.50;4.88;;;4.90;99.90;;;;;;5012882;28;20091;-88
2021/03/14 03:25:08;;;;;;;32.97;4.70;;;4.90;99.90;;;;;;5030417;28;20120;-88
2021/03/14 03:27:34;;;;;;;41.30;5.03;;;4.90;99.90;;;;;;5029654;28;20142;-89
2021/03/14 03:30:01;;;;;;;31.40;4.28;;;5.00;99.90;;;;;;5029449;28;20469;-89
2021/03/14 03:32:27;;;;;;;34.35;5.22;;;4.90;99.90;;;;;;5030250;28;20498;-87
2021/03/14 03:34:53;;;;;;;39.10;4.43;;;4.80;99.90;;;;;;5029170;28;20041;-88
2021/03/14 03:37:18;;;;;;;37.22;6.45;;;4.90;99.90;;;;;;5029787;28;20049;-88
2021/03/14 03:39:44;;;;;;;34.60;4.32;;;4.80;99.90;;;;;;5029050;28;20041;-88
2021/03/14 03:42:15;;;;;;;36.90;4.00;;;4.80;99.90;;;;;;5028608;28;20057;-88
2021/03/14 03:44:41;;;;;;;;;;;4.70;99.90;;;;;;5029675;28;20504;-87
2021/03/14 03:47:11;;;;;;;31.70;4.57;;;4.70;99.90;;;;;;5044546;28;19928;-88
2021/03/14 03:49:39;;;;;;;35.05;4.43;;;4.80;99.90;;;;;;5029367;28;20080;-89
2021/03/14 03:52:05;;;;;;;31.63;4.30;;;4.70;99.90;;;;;;5028862;28;20210;-88
2021/03/14 03:54:31;;;;;;;37.58;3.92;;;4.70;99.90;;;;;;5029322;28;20053;-86
2021/03/14 03:56:58;;;;;;;20.17;2.90;;;4.70;99.90;;;;;;5044853;28;20136;-88
2021/03/14 03:59:26;;;;;;;33.65;3.92;;;4.60;99.90;;;;;;5029642;28;20124;-89
2021/03/14 04:01:53;;;;;;;23.75;3.75;;;4.60;99.90;;;;;;5029743;28;20073;-88
2021/03/14 04:04:22;;;;;;;28.77;3.38;;;4.50;99.90;;;;;;5029075;28;20519;-88
2021/03/14 04:06:53;;;;;;;38.00;4.55;;;4.50;99.90;;;;;;5045367;28;20037;-87
2021/03/14 04:09:19;;;;;;;;;;;4.40;99.90;;;;;;5029406;28;20515;-88
2021/03/14 04:11:46;;;;;;;37.25;4.32;;;4.50;99.90;;;;;;5041034;28;19927;-88
2021/03/14 04:14:13;;;;;;;40.83;4.65;;;4.40;99.90;;;;;;5048319;28;20489;-89
2021/03/14 04:16:40;;;;;;;37.35;5.13;;;4.40;99.90;;;;;;5028869;28;20073;-89
2021/03/14 04:19:12;;;;;;;32.15;3.53;;;4.50;99.90;;;;;;5028164;28;20038;-89
2021/03/14 04:21:40;;;;;;;44.63;4.10;;;4.30;99.90;;;;;;5029255;28;20125;-88
2021/03/14 04:24:10;;;;;;;37.65;4.68;;;4.30;99.90;;;;;;5044272;28;20049;-88
2021/03/14 04:26:43;;;;;;;43.47;6.53;;;4.30;99.90;;;;;;5045125;28;20049;-88
2021/03/14 04:29:10;;;;;;;51.85;6.28;;;4.30;99.90;;;;;;5044914;28;20649;-89
2021/03/14 04:31:48;;;;;;;41.00;5.30;;;4.20;99.90;;;;;;5045381;28;20053;-89
2021/03/14 04:34:16;;;;;;;35.10;4.80;;;4.20;99.90;;;;;;5027940;28;20041;-88
2021/03/14 04:36:44;;;;;;;39.10;5.20;;;4.10;99.90;;;;;;5039541;28;20053;-88
2021/03/14 04:39:10;;;;;;;38.47;4.30;;;4.10;99.90;;;;;;5029258;28;20116;-87
2021/03/14 04:41:37;;;;;;;44.75;4.90;;;4.10;99.90;;;;;;5008521;28;20467;-88
2021/03/14 04:44:06;;;;;;;45.08;5.32;;;4.00;99.90;;;;;;5028392;28;20046;-88
2021/03/14 04:46:32;;;;;;;39.20;4.43;;;4.00;99.90;;;;;;5027746;28;20120;-89
2021/03/14 04:48:58;;;;;;;38.80;5.05;;;4.00;99.90;;;;;;5027604;28;20099;-89
2021/03/14 04:51:27;;;;;;;49.55;5.03;;;4.00;99.90;;;;;;5044896;28;20071;-89
2021/03/14 04:53:55;;;;;;;48.35;4.78;;;4.00;99.90;;;;;;5027837;28;20041;-88
2021/03/14 04:56:22;;;;;;;35.63;4.88;;;4.00;99.90;;;;;;5028343;28;20048;-88
2021/03/14 04:58:50;;;;;;;36.10;4.40;;;3.90;99.90;;;;;;5028192;28;20489;-88
2021/03/14 05:01:18;;;;;;;25.13;4.68;;;3.90;99.90;;;;;;5028494;28;20064;-88
2021/03/14 05:03:46;;;;;;;40.60;5.13;;;3.80;99.90;;;;;;5044630;28;20041;-88
2021/03/14 05:06:17;;;;;;;37.55;4.35;;;3.80;99.90;;;;;;5028602;28;20049;-88
2021/03/14 05:08:44;;;;;;;47.90;5.55;;;3.90;99.90;;;;;;5044516;28;20064;-88
2021/03/14 05:11:10;;;;;;;48.17;5.95;;;3.70;99.90;;;;;;5028490;28;20462;-88
2021/03/14 05:13:38;;;;;;;31.15;3.47;;;3.60;99.90;;;;;;5028293;28;20053;-86
2021/03/14 05:16:05;;;;;;;48.10;5.63;;;3.70;99.90;;;;;;5027770;28;20091;-88
2021/03/14 05:18:32;;;;;;;53.35;5.63;;;3.70;99.90;;;;;;5028048;28;20033;-88
2021/03/14 05:20:58;;;;;;;30.25;3.72;;;3.60;99.90;;;;;;5043498;28;20091;-87
2021/03/14 05:23:26;;;;;;;24.27;3.15;;;3.60;99.90;;;;;;5044692;28;20045;-89
2021/03/14 05:25:53;;;;;;;32.38;4.63;;;3.70;99.90;;;;;;5027916;28;20057;-87
2021/03/14 05:28:20;;;;;;;39.55;4.18;;;3.60;99.90;;;;;;5028313;28;20485;-89
2021/03/14 05:30:46;;;;;;;49.28;5.65;;;3.60;99.90;;;;;;5027582;28;20124;-88
2021/03/14 05:33:12;;;;;;;32.50;4.57;;;3.60;99.90;;;;;;5026993;28;20060;-88
2021/03/14 05:35:38;;;;;;;41.25;4.53;;;3.60;99.90;;;;;;5027922;28;20049;-88
2021/03/14 05:38:04;;;;;;;49.58;5.75;;;3.50;99.90;;;;;;5026686;28;20116;-88
2021/03/14 05:40:30;;;;;;;40.97;4.82;;;3.60;99.90;;;;;;5044727;28;20048;-88
2021/03/14 05:42:58;;;;;;;36.63;5.25;;;3.60;99.90;;;;;;5027349;28;20045;-87
2021/03/14 05:45:25;;;;;;;46.45;5.25;;;4.10;99.90;;;;;;5027075;28;20057;-88
2021/03/14 05:47:51;;;;;;;48.15;5.68;;;3.60;99.90;;;;;;5027649;28;20061;-87
2021/03/14 05:50:19;;;;;;;39.78;5.10;;;3.60;99.90;;;;;;5010439;28;20037;-87
2021/03/14 05:52:46;;;;;;;49.38;7.35;;;3.60;99.90;;;;;;5029807;28;20072;-88
2021/03/14 05:55:16;;;;;;;46.08;4.68;;;3.60;99.90;;;;;;5047150;28;20042;-88
2021/03/14 05:57:46;;;;;;;35.13;4.43;;;3.60;99.90;;;;;;5031626;28;20046;-88
2021/03/14 06:00:15;;;;;;;;;;;3.60;99.90;;;;;;5031285;28;20033;-88
2021/03/14 06:02:42;;;;;;;58.05;5.82;;;3.60;99.90;;;;;;5047935;28;19932;-88
2021/03/14 06:05:09;;;;;;;49.33;5.90;;;3.70;99.90;;;;;;5031923;28;20041;-87
2021/03/14 06:07:35;;;;;;;47.15;5.97;;;3.70;99.90;;;;;;5031471;28;20045;-87
2021/03/14 06:10:03;;;;;;;48.03;6.28;;;3.60;99.90;;;;;;5037289;28;20045;-88
2021/03/14 06:12:32;;;;;;;37.55;4.68;;;3.60;99.90;;;;;;5027544;28;20068;-89
2021/03/14 06:14:58;;;;;;;35.80;4.70;;;3.80;99.90;;;;;;5031782;28;20516;-88
2021/03/14 06:17:27;;;;;;;40.17;4.97;;;3.70;99.90;;;;;;5047049;28;20048;-88
2021/03/14 06:19:53;;;;;;;64.00;6.47;;;3.60;99.90;;;;;;5031354;28;20078;-88
2021/03/14 06:22:24;;;;;;;58.55;6.65;;;3.70;99.90;;;;;;5031514;28;20048;-88
2021/03/14 06:24:52;;;;;;;41.95;6.38;;;3.70;99.90;;;;;;5020772;28;20034;-89
2021/03/14 06:27:51;;;;;;;55.03;6.75;;;3.80;99.90;;;;;;5046989;28;20050;-88
2021/03/14 06:30:24;;;;;;;30.45;4.55;;;3.70;99.90;;;;;;5032068;28;20048;-89
2021/03/14 06:33:09;;;;;;;44.15;5.05;;;3.70;99.90;;;;;;5030078;28;20049;-89
2021/03/14 06:35:52;;;;;;;46.80;5.18;;;3.80;99.90;;;;;;5047150;28;20037;-88
2021/03/14 06:38:34;;;;;;;50.17;6.20;;;3.80;99.90;;;;;;5034186;28;20033;-88
2021/03/14 06:41:06;;;;;;;48.25;5.53;;;3.80;99.90;;;;;;5018170;28;20108;-90
2021/03/14 06:43:34;;;;;;;51.40;5.63;;;3.90;99.90;;;;;;5034059;28;20096;-89
2021/03/14 06:46:01;;;;;;;51.65;5.63;;;3.90;99.90;;;;;;5017291;28;20092;-88
2021/03/14 06:48:28;;;;;;;71.03;8.82;;;3.90;99.90;;;;;;5023027;28;20456;-89
2021/03/14 06:50:55;;;;;;;52.55;6.45;;;4.00;99.90;;;;;;5016653;28;20065;-89
2021/03/14 06:53:23;;;;;;;53.92;5.75;;;4.00;99.90;;;;;;5034416;28;20930;-88
2021/03/14 06:55:51;;;;;;;46.60;7.70;;;4.10;99.90;;;;;;5017614;28;20124;-88
2021/03/14 06:58:32;;;;;;;62.17;6.07;;;4.10;99.90;;;;;;5045862;28;20468;-89
2021/03/14 07:01:14;;;;;;;;;;;4.10;99.90;;;;;;5022408;28;20042;-90
2021/03/14 07:03:49;;;;;;;49.72;6.80;;;4.10;99.90;;;;;;5039996;28;19925;-89
2021/03/14 07:06:19;;;;;;;46.20;5.60;;;4.10;99.90;;;;;;5015877;28;20383;-88
2021/03/14 07:09:09;;;;;;;49.10;5.45;;;4.20;99.90;;;;;;5041613;28;20056;-88
2021/03/14 07:11:41;;;;;;;52.08;5.72;;;4.20;99.90;;;;;;5032694;28;20096;-89
2021/03/14 07:14:12;;;;;;;61.53;6.10;;;4.20;99.90;;;;;;5031057;28;20056;-89
2021/03/14 07:16:49;;;;;;;51.70;6.43;;;4.30;99.90;;;;;;5031515;28;20042;-89
2021/03/14 07:19:22;;;;;;;45.75;6.07;;;4.30;99.90;;;;;;5028825;28;20054;-88
2021/03/14 07:22:07;;;;;;;45.97;4.80;;;4.40;99.90;;;;;;5047001;28;20038;-88
2021/03/14 07:24:35;;;;;;;44.00;6.03;;;4.40;99.90;;;;;;5030486;28;20513;-89
2021/03/14 07:27:04;;;;;;;41.55;5.30;;;4.60;99.90;;;;;;5046199;28;20069;-91
2021/03/14 07:29:34;;;;;;;47.95;5.75;;;4.60;99.90;;;;;;5029760;28;20045;-91
2021/03/14 07:32:01;;;;;;;51.03;5.72;;;4.60;99.90;;;;;;5029541;28;20053;-90
2021/03/14 07:34:27;;;;;;;41.17;5.32;;;4.60;99.90;;;;;;5028055;28;20171;-89
2021/03/14 07:36:53;;;;;;;32.35;4.50;;;4.70;99.90;;;;;;5029973;28;20543;-90
2021/03/14 07:39:20;;;;;;;38.33;5.03;;;4.70;99.90;;;;;;5029325;28;20509;-90
2021/03/14 07:41:46;;;;;;;33.60;3.97;;;4.80;99.90;;;;;;5029325;28;20449;-90
2021/03/14 07:44:14;;;;;;;61.38;6.15;;;4.80;99.90;;;;;;5028833;28;20543;-91
2021/03/14 07:46:43;;;;;;;27.33;4.05;;;4.90;99.90;;;;;;5029057;28;20057;-89
2021/03/14 07:49:17;;;;;;;29.30;4.50;;;5.00;99.90;;;;;;5029362;28;20585;-89
2021/03/14 07:52:06;;;;;;;54.92;7.32;;;5.00;99.90;;;;;;5030839;28;20456;-90
2021/03/14 07:54:44;;;;;;;37.40;5.20;;;5.10;99.90;;;;;;5030628;28;20033;-90
2021/03/14 07:57:11;;;;;;;35.05;5.07;;;5.20;99.90;;;;;;5028888;28;20034;-90
2021/03/14 07:59:37;;;;;;;36.33;6.07;;;5.20;99.90;;;;;;5045429;28;20042;-90
2021/03/14 08:02:18;;;;;;;33.47;4.18;;;5.30;99.90;;;;;;5025871;28;20536;-89
2021/03/14 08:04:48;;;;;;;48.17;4.72;;;5.30;99.90;;;;;;5030435;28;20045;-89
2021/03/14 08:07:14;;;;;;;27.05;4.53;;;5.30;99.90;;;;;;5048003;28;20041;-89
2021/03/14 08:09:48;;;;;;;49.15;5.70;;;5.30;99.90;;;;;;5017512;28;20042;-90
2021/03/14 08:12:21;;;;;;;34.33;4.50;;;5.30;99.90;;;;;;5025528;28;20044;-90
2021/03/14 08:14:50;;;;;;;34.10;5.07;;;5.40;99.90;;;;;;5057852;28;20040;-88
2021/03/14 08:17:33;;;;;;;19.42;2.65;;;5.40;99.90;;;;;;5051569;28;20486;-90
2021/03/14 08:19:59;;;;;;;40.88;4.95;;;5.50;99.90;;;;;;5027162;28;20064;-89
2021/03/14 08:22:37;;;;;;;26.83;5.45;;;5.50;99.90;;;;;;5049141;28;20037;-91
2021/03/14 08:25:23;;;;;;;30.80;5.30;;;5.60;99.90;;;;;;5041854;28;20080;-90
2021/03/14 08:27:57;;;;;;;28.52;4.40;;;5.70;99.90;;;;;;5050927;28;20052;-90
2021/03/14 08:30:29;;;;;;;24.35;3.70;;;5.80;99.90;;;;;;5038785;28;20041;-89
2021/03/14 08:33:27;;;;;;;39.65;4.85;;;5.80;99.90;;;;;;5040459;28;20055;-88
2021/03/14 08:36:05;;;;;;;23.30;3.25;;;5.90;99.90;;;;;;5035447;28;20045;-88
2021/03/14 08:38:47;;;;;;;22.00;3.47;;;5.90;99.90;;;;;;5024816;28;20041;-89
2021/03/14 08:41:30;;;;;;;19.95;3.67;;;6.00;99.90;;;;;;5029261;28;20038;-87
2021/03/14 08:44:12;;;;;;;27.75;3.58;;;6.00;99.90;;;;;;5045715;28;20099;-89
2021/03/14 08:46:43;;;;;;;31.00;4.85;;;6.00;99.90;;;;;;5029856;28;20052;-91
2021/03/14 08:49:09;;;;;;;19.33;3.80;;;6.10;99.90;;;;;;5045570;28;20037;-88
2021/03/14 08:51:35;;;;;;;25.48;4.28;;;6.20;99.90;;;;;;5045509;28;20093;-87
2021/03/14 08:54:01;;;;;;;21.40;3.13;;;6.20;99.90;;;;;;5029051;28;20520;-87
2021/03/14 08:56:27;;;;;;;27.73;4.20;;;6.40;99.90;;;;;;5013537;28;20049;-88
2021/03/14 08:59:10;;;;;;;23.98;3.25;;;6.40;99.90;;;;;;5013470;28;20474;-89
2021/03/14 09:01:37;;;;;;;9.82;1.83;;;6.50;99.90;;;;;;5063023;28;20137;-88
2021/03/14 09:04:14;;;;;;;30.23;3.80;;;6.50;99.90;;;;;;5032207;28;20119;-88
2021/03/14 09:06:40;;;;;;;15.52;2.70;;;6.60;99.90;;;;;;5028131;28;20042;-86
2021/03/14 09:09:11;;;;;;;15.52;3.00;;;6.70;99.90;;;;;;5042228;28;20045;-90
2021/03/14 09:11:50;;;;;;;11.73;2.22;;;6.90;99.90;;;;;;5051686;28;20128;-88
2021/03/14 09:14:28;;;;;;;16.08;2.20;;;6.80;99.90;;;;;;5030123;28;20114;-87
2021/03/14 09:17:00;;;;;;;23.73;2.95;;;6.60;99.90;;;;;;5029386;28;20045;-88
2021/03/14 09:19:38;;;;;;;12.38;2.65;;;6.80;99.90;;;;;;5033100;28;20041;-89
2021/03/14 09:22:18;;;;;;;13.80;2.00;;;6.90;99.90;;;;;;5033912;28;20041;-89
2021/03/14 09:24:54;;;;;;;9.38;2.05;;;6.90;99.90;;;;;;5040980;28;20495;-88
2021/03/14 09:27:22;;;;;;;9.98;1.65;;;6.70;99.90;;;;;;5015820;28;20053;-87
2021/03/14 09:29:55;;;;;;;8.15;1.73;;;7.00;99.90;;;;;;5040823;28;20040;-88
2021/03/14 09:32:31;;;;;;;20.83;2.92;;;7.00;99.90;;;;;;5018396;28;20069;-88
2021/03/14 09:35:26;;;;;;;12.60;2.20;;;7.20;99.90;;;;;;5041910;28;20045;-90
2021/03/14 09:38:04;;;;;;;7.50;1.95;;;7.30;99.90;;;;;;5020100;28;20057;-90
2021/03/14 09:40:49;;;;;;;13.50;1.90;;;7.40;99.90;;;;;;5034556;28;20041;-88
2021/03/14 09:43:28;;;;;;;20.20;3.13;;;7.20;99.90;;;;;;5033426;28;20051;-87
2021/03/14 09:45:59;;;;;;;10.07;2.38;;;7.30;99.90;;;;;;5018963;28;20060;-88
2021/03/14 09:48:32;;;;;;;15.90;2.20;;;7.40;99.90;;;;;;5042168;28;20489;-88
2021/03/14 09:51:07;;;;;;;19.52;2.15;;;7.30;99.90;;;;;;5023096;28;20077;-88
2021/03/14 09:53:38;;;;;;;9.82;1.98;;;7.50;99.90;;;;;;5042733;28;20041;-87
2021/03/14 09:56:08;;;;;;;9.80;2.08;;;7.60;99.90;;;;;;5033711;28;20048;-87
2021/03/14 09:58:35;;;;;;;10.80;2.22;;;7.60;99.90;;;;;;5033428;28;20033;-88
2021/03/14 10:01:01;;;;;;;15.15;3.22;;;7.60;99.90;;;;;;5038246;28;20486;-88
2021/03/14 10:03:29;;;;;;;12.10;2.38;;;7.50;99.90;;;;;;5033190;28;20062;-87
2021/03/14 10:05:57;;;;;;;11.63;1.83;;;7.70;99.90;;;;;;5021655;28;20069;-88
2021/03/14 10:08:29;;;;;;;16.65;2.47;;;7.70;99.90;;;;;;5017943;28;20045;-87
2021/03/14 10:11:01;;;;;;;19.80;2.88;;;7.90;99.90;;;;;;5016810;28;20045;-88
2021/03/14 10:13:28;;;;;;;17.98;2.72;;;7.90;99.90;;;;;;5033765;28;20051;-87
2021/03/14 10:15:55;;;;;;;17.70;2.67;;;7.80;99.90;;;;;;5027172;28;20045;-89
2021/03/14 10:18:24;;;;;;;10.82;2.25;;;7.70;99.90;;;;;;5027369;28;20045;-89
2021/03/14 10:20:51;;;;;;;8.32;2.10;;;7.60;99.90;;;;;;5043154;28;20161;-88
2021/03/14 10:23:23;;;;;;;16.00;2.03;;;7.40;99.90;;;;;;5043977;28;20046;-89
2021/03/14 10:25:49;;;;;;;10.80;2.05;;;7.30;99.90;;;;;;5026341;28;20496;-87
2021/03/14 10:28:17;;;;;;;11.68;2.40;;;7.20;99.90;;;;;;5026580;28;20084;-87
2021/03/14 10:30:48;;;;;;;17.63;3.03;;;7.30;99.90;;;;;;5042983;28;20045;-87
2021/03/14 10:33:31;;;;;;;9.18;1.73;;;7.20;99.90;;;;;;5043382;28;20091;-87
2021/03/14 10:36:03;;;;;;;16.63;1.92;;;6.90;99.90;;;;;;5026686;28;20042;-87
2021/03/14 10:38:37;;;;;;;7.78;1.67;;;6.90;99.90;;;;;;5040944;28;20482;-87
2021/03/14 10:41:10;;;;;;;10.80;2.33;;;6.80;99.90;;;;;;5045880;28;20064;-88
2021/03/14 10:43:44;;;;;;;19.20;3.42;;;6.90;99.90;;;;;;5029154;28;20041;-87
2021/03/14 10:46:10;;;;;;;17.52;3.30;;;7.00;99.90;;;;;;5047211;28;20050;-89
2021/03/14 10:48:36;;;;;;;14.50;2.40;;;7.40;99.90;;;;;;5034341;28;20043;-88
2021/03/14 10:51:05;;;;;;;13.85;2.35;;;7.40;99.90;;;;;;5037439;28;20480;-88
2021/03/14 10:53:31;;;;;;;17.05;2.95;;;7.40;99.90;;;;;;5031157;28;20323;-89
2021/03/14 10:56:12;;;;;;;9.35;2.40;;;7.40;99.90;;;;;;5029512;28;20430;-88
2021/03/14 10:58:41;;;;;;;13.23;1.63;;;7.20;99.90;;;;;;5029694;28;20102;-88
2021/03/14 11:01:11;;;;;;;16.63;3.08;;;7.20;99.90;;;;;;5029048;28;20038;-88
2021/03/14 11:03:40;;;;;;;14.50;2.35;;;7.40;99.90;;;;;;5034883;28;20032;-89
2021/03/14 11:06:22;;;;;;;13.52;2.25;;;7.70;99.90;;;;;;5043013;28;20053;-89
2021/03/14 11:08:53;;;;;;;19.85;2.38;;;8.10;99.90;;;;;;5054456;28;20052;-89
2021/03/14 11:11:23;;;;;;;10.60;2.03;;;8.20;99.90;;;;;;5014270;28;20485;-89
2021/03/14 11:13:50;;;;;;;10.25;1.65;;;8.20;99.90;;;;;;5027954;28;20081;-91
2021/03/14 11:16:16;;;;;;;13.45;2.45;;;8.00;99.90;;;;;;5036665;28;20051;-89
2021/03/14 11:18:42;;;;;;;8.77;1.77;;;8.20;99.90;;;;;;5057518;28;20037;-89
2021/03/14 11:21:10;;;;;;;13.38;2.72;;;7.80;99.90;;;;;;5051214;28;20409;-89
2021/03/14 11:23:36;;;;;;;7.05;1.77;;;7.80;99.90;;;;;;5028885;28;20088;-89
2021/03/14 11:26:02;;;;;;;26.08;3.40;;;7.50;99.90;;;;;;5031727;28;20500;-87
2021/03/14 11:28:28;;;;;;;7.78;1.98;;;7.60;99.90;;;;;;5048521;28;20045;-88
2021/03/14 11:30:55;;;;;;;12.23;2.47;;;7.70;99.90;;;;;;5031416;28;20049;-88
2021/03/14 11:33:21;;;;;;;14.93;2.83;;;8.00;99.90;;;;;;5053480;28;20041;-87
2021/03/14 11:35:47;;;;;;;24.98;2.63;;;8.00;99.90;;;;;;5026528;28;20046;-87
2021/03/14 11:38:13;;;;;;;10.45;2.13;;;8.20;99.90;;;;;;5026526;28;20046;-88
2021/03/14 11:40:39;;;;;;;11.20;1.83;;;8.20;99.90;;;;;;5040382;28;20851;-90
2021/03/14 11:43:04;;;;;;;13.18;2.15;;;8.10;99.90;;;;;;5029446;28;20486;-89
2021/03/14 11:45:30;;;;;;;10.30;2.45;;;8.60;99.90;;;;;;5051721;28;20048;-86
2021/03/14 11:47:56;;;;;;;9.90;1.13;;;8.50;99.90;;;;;;5031960;28;20057;-89
2021/03/14 11:50:22;;;;;;;6.03;1.52;;;8.30;99.90;;;;;;5047465;28;20409;-89
2021/03/14 11:52:49;;;;;;;14.73;3.20;;;8.80;99.30;;;;;;5029843;28;20072;-89
2021/03/14 11:55:16;;;;;;;11.15;1.60;;;8.80;99.90;;;;;;5030973;28;20065;-88
2021/03/14 11:57:42;;;;;;;10.50;1.58;;;8.30;99.90;;;;;;5043287;28;20037;-89
2021/03/14 12:00:09;;;;;;;15.45;1.98;;;8.30;99.90;;;;;;5033835;28;20378;-90
2021/03/14 12:02:36;;;;;;;12.73;2.53;;;8.80;99.90;;;;;;5034457;28;20053;-87
2021/03/14 12:05:03;;;;;;;14.38;2.55;;;8.90;98.60;;;;;;5046385;28;20046;-91
2021/03/14 12:07:28;;;;;;;11.98;2.17;;;8.70;99.70;;;;;;5029428;28;20458;-91
2021/03/14 12:09:55;;;;;;;14.88;3.42;;;8.80;99.90;;;;;;5010211;28;20112;-90
2021/03/14 12:12:21;;;;;;;17.30;2.10;;;8.70;98.70;;;;;;5025263;28;20489;-91
2021/03/14 12:14:46;;;;;;;8.10;1.65;;;8.80;99.90;;;;;;5027190;28;20085;-91
2021/03/14 12:17:12;;;;;;;7.95;1.55;;;8.90;98.30;;;;;;5034395;28;20080;-90
2021/03/14 12:19:38;;;;;;;11.85;2.45;;;8.90;99.30;;;;;;5034314;28;20052;-88
2021/03/14 12:22:04;;;;;;;6.72;1.38;;;9.10;94.70;;;;;;5046623;28;20402;-87
2021/03/14 12:24:30;;;;;;;16.10;2.10;;;9.10;95.60;;;;;;5040767;28;20037;-90
2021/03/14 12:26:55;;;;;;;16.50;1.85;;;9.20;95.30;;;;;;5017009;28;20279;-89
2021/03/14 12:29:21;;;;;;;12.00;1.92;;;9.50;96.40;;;;;;5021016;28;20042;-90
2021/03/14 12:31:48;;;;;;;8.48;1.90;;;9.30;93.80;;;;;;5051273;28;20118;-88
2021/03/14 12:34:13;;;;;;;11.43;2.03;;;9.30;96.90;;;;;;5035017;28;20456;-89
2021/03/14 12:36:39;;;;;;;11.68;2.17;;;9.50;94.70;;;;;;5029354;28;20041;-87
2021/03/14 12:39:05;;;;;;;11.95;2.40;;;9.90;95.20;;;;;;5041752;28;20049;-89
2021/03/14 12:41:32;;;;;;;12.73;2.60;;;10.00;93.20;;;;;;5048731;28;20401;-89
2021/03/14 12:43:59;;;;;;;6.22;1.55;;;9.90;92.10;;;;;;5045132;28;20041;-89
2021/03/14 12:46:25;;;;;;;13.35;2.75;;;9.80;92.40;;;;;;5029341;28;20070;-89
2021/03/14 12:48:51;;;;;;;10.07;1.95;;;10.00;90.80;;;;;;5014945;28;20045;-86
2021/03/14 12:51:16;;;;;;;17.20;3.22;;;10.10;92.40;;;;;;5012043;28;20054;-87
2021/03/14 12:53:42;;;;;;;12.30;2.40;;;10.40;90.50;;;;;;5015972;28;20045;-86
2021/03/14 12:56:08;;;;;;;12.13;2.42;;;10.60;89.90;;;;;;5008781;28;20545;-86
2021/03/14 12:58:33;;;;;;;14.70;2.03;;;10.70;89.10;;;;;;5029543;28;20441;-87